Time;durP1;ratioP1;P1;durP2;ratioP2;P2;SDS_P1;SDS_P2;PMS_P1;PMS_P2;Temp;Humidity;BMP_temperature;BMP_pressure;BME280_temperature;BME280_humidity;BME280_pressure;Samples;Min_cycle;Max_cycle;Signal;HPM_P1;HPM_P2
2021/10/16 00:00:44;;;;;;;14.20;5.70;;;9.70;99.90;;;;;;5044210;28;39180;-77
2021/10/16 00:03:10;;;;;;;13.07;5.10;;;9.70;99.90;;;;;;5044117;28;38358;-76
2021/10/16 00:05:36;;;;;;;12.00;4.70;;;9.80;99.90;;;;;;5046120;28;36170;-77
2021/10/16 00:08:02;;;;;;;16.75;5.47;;;9.80;99.90;;;;;;5046059;28;38870;-76
2021/10/16 00:10:29;;;;;;;14.52;5.00;;;9.80;99.90;;;;;;5040418;28;38628;-77
2021/10/16 00:12:55;;;;;;;11.52;4.70;;;9.80;99.90;;;;;;5041016;28;38924;-77
2021/10/16 00:15:21;;;;;;;11.77;5.20;;;9.80;99.90;;;;;;5044594;28;38078;-77
2021/10/16 00:17:47;;;;;;;15.93;5.27;;;9.90;99.90;;;;;;5042631;28;39522;-77
2021/10/16 00:20:13;;;;;;;13.57;4.47;;;9.90;99.90;;;;;;5037889;28;39909;-78
2021/10/16 00:22:39;;;;;;;15.38;4.95;;;10.00;99.90;;;;;;5038360;28;39512;-78
2021/10/16 00:25:05;;;;;;;12.18;4.53;;;10.00;99.90;;;;;;5043989;28;37643;-78
2021/10/16 00:27:31;;;;;;;14.80;4.32;;;10.00;99.90;;;;;;5037447;28;38887;-77
2021/10/16 00:29:58;;;;;;;10.88;4.90;;;10.00;99.90;;;;;;5044720;28;39685;-77
2021/10/16 00:32:24;;;;;;;11.68;4.45;;;10.00;99.90;;;;;;5019059;28;37811;-77
2021/10/16 00:34:50;;;;;;;13.90;5.10;;;10.00;99.90;;;;;;5030190;28;37457;-77
2021/10/16 00:37:16;;;;;;;11.80;4.70;;;10.10;99.90;;;;;;5020213;28;39331;-78
2021/10/16 00:39:42;;;;;;;15.82;5.03;;;10.10;99.90;;;;;;5019855;28;39292;-77
2021/10/16 00:42:08;;;;;;;12.97;4.33;;;10.00;99.90;;;;;;5015623;28;39108;-77
2021/10/16 00:44:36;;;;;;;10.27;4.05;;;10.00;99.90;;;;;;5022918;28;35261;-76
2021/10/16 00:47:02;;;;;;;13.20;4.85;;;10.10;99.90;;;;;;5037936;28;39478;-76
2021/10/16 00:49:29;;;;;;;12.82;4.40;;;10.10;99.90;;;;;;5038992;28;38755;-77
2021/10/16 00:51:59;;;;;;;13.55;5.00;;;10.10;99.90;;;;;;5031665;28;38158;-77
2021/10/16 00:54:25;;;;;;;10.50;4.20;;;10.10;99.90;;;;;;5040230;28;38183;-76
2021/10/16 00:56:52;;;;;;;12.13;4.43;;;10.20;99.90;;;;;;5038317;28;39141;-76
2021/10/16 00:59:19;;;;;;;11.10;3.80;;;10.20;99.90;;;;;;5052345;28;37463;-77
2021/10/16 01:01:47;;;;;;;17.80;4.45;;;10.20;99.90;;;;;;5044717;28;38072;-77
2021/10/16 01:04:13;;;;;;;13.52;4.45;;;10.10;99.90;;;;;;5041808;28;37138;-77
2021/10/16 01:06:40;;;;;;;17.42;3.70;;;10.20;99.90;;;;;;5036669;28;38905;-76
2021/10/16 01:09:09;;;;;;;13.73;3.72;;;10.20;99.90;;;;;;5036971;28;37537;-77
2021/10/16 01:11:38;;;;;;;11.20;4.03;;;10.20;99.90;;;;;;5034110;28;37811;-77
2021/10/16 01:14:06;;;;;;;13.25;3.40;;;10.20;99.90;;;;;;5043736;28;38097;-76
2021/10/16 01:16:34;;;;;;;14.23;3.65;;;10.20;99.90;;;;;;5032985;28;38831;-77
2021/10/16 01:19:01;;;;;;;12.25;3.78;;;10.20;99.90;;;;;;5044048;28;39157;-77
2021/10/16 01:21:29;;;;;;;8.00;3.53;;;10.20;99.90;;;;;;5043153;28;47090;-77
2021/10/16 01:23:57;;;;;;;12.60;3.58;;;10.20;99.90;;;;;;5062008;28;37446;-76
2021/10/16 01:26:26;;;;;;;14.60;3.40;;;10.30;99.90;;;;;;5043593;28;40388;-76
2021/10/16 01:28:53;;;;;;;14.70;3.65;;;10.30;99.90;;;;;;5046566;28;39293;-78
2021/10/16 01:31:22;;;;;;;17.30;3.90;;;10.30;99.90;;;;;;5057841;28;38617;-77
2021/10/16 01:33:48;;;;;;;10.23;2.83;;;10.30;99.90;;;;;;5060588;28;37799;-77
2021/10/16 01:36:14;;;;;;;10.32;3.15;;;10.40;99.90;;;;;;5053917;28;40293;-76
2021/10/16 01:38:40;;;;;;;6.30;3.13;;;10.40;99.90;;;;;;5045256;28;38493;-78
2021/10/16 01:41:06;;;;;;;13.13;3.55;;;10.40;99.90;;;;;;5045027;28;38196;-77
2021/10/16 01:43:33;;;;;;;13.38;3.33;;;10.30;99.90;;;;;;5043714;28;36183;-78
2021/10/16 01:45:59;;;;;;;8.70;2.78;;;10.30;99.90;;;;;;5054756;28;39382;-77
2021/10/16 01:48:26;;;;;;;12.45;3.70;;;10.30;99.90;;;;;;5043719;28;39032;-78
2021/10/16 01:50:54;;;;;;;7.13;2.38;;;10.40;99.90;;;;;;5043596;28;38027;-77
2021/10/16 01:53:21;;;;;;;14.82;3.28;;;10.40;99.90;;;;;;5040888;28;36942;-77
2021/10/16 01:55:47;;;;;;;11.90;3.15;;;10.40;99.90;;;;;;5039341;28;39076;-78
2021/10/16 01:58:15;;;;;;;13.05;3.40;;;10.40;99.90;;;;;;5041178;28;38385;-78
2021/10/16 02:00:46;;;;;;;11.48;2.90;;;10.40;99.90;;;;;;5040203;28;39764;-77
2021/10/16 02:03:13;;;;;;;7.13;2.67;;;10.40;99.90;;;;;;5041001;28;36738;-77
2021/10/16 02:05:45;;;;;;;11.63;2.88;;;10.40;99.90;;;;;;5038140;28;39940;-77
2021/10/16 02:08:12;;;;;;;12.65;2.85;;;10.40;99.90;;;;;;5041497;28;38653;-78
2021/10/16 02:10:39;;;;;;;13.25;3.15;;;10.40;99.90;;;;;;5044075;28;39021;-77
2021/10/16 02:13:06;;;;;;;7.55;2.38;;;10.40;99.90;;;;;;5039012;28;37918;-77
2021/10/16 02:15:32;;;;;;;20.05;3.63;;;10.40;99.90;;;;;;5040901;28;38645;-77
2021/10/16 02:17:58;;;;;;;10.75;2.67;;;10.40;99.90;;;;;;5028934;28;39665;-77
2021/10/16 02:20:24;;;;;;;12.68;3.58;;;10.40;99.90;;;;;;5022080;28;38907;-77
2021/10/16 02:22:50;;;;;;;12.70;2.90;;;10.40;99.90;;;;;;5029065;28;37103;-77
2021/10/16 02:25:16;;;;;;;11.35;2.60;;;10.40;99.90;;;;;;5025888;28;40382;-78
2021/10/16 02:27:42;;;;;;;10.27;3.55;;;10.40;99.90;;;;;;5036179;28;39177;-77
2021/10/16 02:30:09;;;;;;;7.65;2.75;;;10.40;99.90;;;;;;5043080;28;37970;-78
2021/10/16 02:32:35;;;;;;;11.65;3.05;;;10.40;99.90;;;;;;5045879;28;36932;-77
2021/10/16 02:35:02;;;;;;;11.18;3.00;;;10.40;99.90;;;;;;5034441;28;39253;-77
2021/10/16 02:37:28;;;;;;;9.82;3.05;;;10.40;99.90;;;;;;5039691;28;38433;-78
2021/10/16 02:39:54;;;;;;;7.25;2.50;;;10.40;99.90;;;;;;5038432;28;38736;-77
2021/10/16 02:42:20;;;;;;;11.18;3.05;;;10.40;99.90;;;;;;5032591;28;36223;-77
2021/10/16 02:44:49;;;;;;;16.30;3.60;;;10.40;99.90;;;;;;5040209;28;38876;-77
2021/10/16 02:47:15;;;;;;;10.35;3.10;;;10.30;99.90;;;;;;5031104;28;36967;-77
2021/10/16 02:49:42;;;;;;;11.63;2.60;;;10.30;99.90;;;;;;5042480;28;36947;-77
2021/10/16 02:52:08;;;;;;;17.45;3.47;;;10.30;99.90;;;;;;5044407;28;36859;-77
2021/10/16 02:54:34;;;;;;;8.95;3.03;;;10.30;99.90;;;;;;5041692;28;37567;-77
2021/10/16 02:57:00;;;;;;;9.52;2.50;;;10.20;99.90;;;;;;5039380;28;38313;-77
2021/10/16 02:59:26;;;;;;;10.75;2.78;;;10.20;99.90;;;;;;5041835;28;38073;-77
2021/10/16 03:01:52;;;;;;;10.82;2.75;;;10.10;99.90;;;;;;5033928;28;36787;-79
2021/10/16 03:04:18;;;;;;;8.25;2.58;;;10.10;99.90;;;;;;5044761;28;37102;-79
2021/10/16 03:06:44;;;;;;;9.50;2.67;;;10.00;99.90;;;;;;5040241;28;38953;-79
2021/10/16 03:09:11;;;;;;;14.90;4.00;;;10.00;99.90;;;;;;5039486;28;36879;-78
2021/10/16 03:11:37;;;;;;;9.18;2.88;;;9.90;99.90;;;;;;5042434;28;37198;-78
2021/10/16 03:14:03;;;;;;;11.88;2.80;;;9.80;99.90;;;;;;5043123;28;38501;-78
2021/10/16 03:16:29;;;;;;;17.35;3.53;;;9.70;99.90;;;;;;5038424;28;38480;-78
2021/10/16 03:18:55;;;;;;;10.90;2.55;;;9.60;99.90;;;;;;5037261;28;38224;-78
2021/10/16 03:21:22;;;;;;;9.97;2.97;;;9.60;99.90;;;;;;5022530;28;36028;-78
2021/10/16 03:23:48;;;;;;;9.63;2.65;;;9.50;99.90;;;;;;5022518;28;39807;-78
2021/10/16 03:26:14;;;;;;;10.97;2.77;;;9.50;99.90;;;;;;5024451;28;39499;-78
2021/10/16 03:28:40;;;;;;;11.93;2.80;;;9.50;99.90;;;;;;5020923;28;38695;-78
2021/10/16 03:31:06;;;;;;;9.13;2.95;;;9.50;99.90;;;;;;5022412;28;37077;-78
2021/10/16 03:33:32;;;;;;;11.27;2.43;;;9.50;99.90;;;;;;5024948;28;39239;-78
2021/10/16 03:35:58;;;;;;;11.00;2.60;;;9.50;99.90;;;;;;5022257;28;38376;-78
2021/10/16 03:38:24;;;;;;;11.23;2.42;;;9.40;99.90;;;;;;5021706;28;38066;-78
2021/10/16 03:40:50;;;;;;;10.48;2.60;;;9.40;99.90;;;;;;5040506;28;37819;-78
2021/10/16 03:43:17;;;;;;;10.15;2.78;;;9.40;99.90;;;;;;5040836;28;38587;-76
2021/10/16 03:45:43;;;;;;;12.90;3.07;;;9.30;99.90;;;;;;5043769;28;39491;-77
2021/10/16 03:48:09;;;;;;;7.03;1.98;;;9.30;99.90;;;;;;5046027;28;37943;-78
2021/10/16 03:50:35;;;;;;;10.50;2.80;;;9.20;99.90;;;;;;5039515;28;37907;-78
2021/10/16 03:53:01;;;;;;;11.65;2.72;;;9.10;99.90;;;;;;5042277;28;38607;-78
2021/10/16 03:55:27;;;;;;;14.37;3.20;;;9.10;99.90;;;;;;5040561;28;48834;-78
2021/10/16 03:57:53;;;;;;;14.43;3.73;;;9.10;99.90;;;;;;5039568;28;38906;-79
2021/10/16 04:00:20;;;;;;;14.20;2.70;;;9.00;99.90;;;;;;5038283;28;37946;-78
2021/10/16 04:02:49;;;;;;;11.97;4.20;;;9.00;99.90;;;;;;5041323;28;41129;-79
2021/10/16 04:05:16;;;;;;;12.73;2.40;;;8.90;99.90;;;;;;5034410;28;38239;-79
2021/10/16 04:07:42;;;;;;;6.53;2.53;;;8.80;99.90;;;;;;5035849;28;37282;-79
2021/10/16 04:10:09;;;;;;;11.00;2.60;;;8.80;99.90;;;;;;5039086;28;39242;-77
2021/10/16 04:12:35;;;;;;;6.87;1.90;;;8.70;99.90;;;;;;5057511;28;39421;-78
2021/10/16 04:15:01;;;;;;;9.10;2.43;;;8.70;99.90;;;;;;5040584;28;36601;-78
2021/10/16 04:17:27;;;;;;;8.10;2.17;;;8.60;99.90;;;;;;5039207;28;38948;-77
2021/10/16 04:19:53;;;;;;;10.40;2.80;;;8.60;99.90;;;;;;5038779;28;40029;-77
2021/10/16 04:22:19;;;;;;;10.90;2.43;;;8.60;99.90;;;;;;5042212;28;39234;-78
2021/10/16 04:24:45;;;;;;;7.43;1.80;;;8.60;99.90;;;;;;5040291;28;40260;-78
2021/10/16 04:27:11;;;;;;;11.03;2.33;;;8.50;99.90;;;;;;5047525;28;38307;-78
2021/10/16 04:29:38;;;;;;;11.57;2.70;;;8.60;99.90;;;;;;5024980;28;37890;-78
2021/10/16 04:32:04;;;;;;;7.90;2.33;;;8.60;99.90;;;;;;5032011;28;39605;-78
2021/10/16 04:34:30;;;;;;;9.70;2.30;;;8.60;99.90;;;;;;5044134;28;38832;-78
2021/10/16 04:36:57;;;;;;;10.97;2.83;;;8.60;99.90;;;;;;5038195;28;38720;-78
2021/10/16 04:39:25;;;;;;;7.47;2.60;;;8.60;99.90;;;;;;5045775;28;38156;-78
2021/10/16 04:41:51;;;;;;;5.77;1.80;;;8.60;99.90;;;;;;5037159;28;40430;-78
2021/10/16 04:44:17;;;;;;;5.57;2.20;;;8.60;99.90;;;;;;5047549;28;39162;-78
2021/10/16 04:46:43;;;;;;;9.87;2.20;;;8.60;99.90;;;;;;5037771;28;39090;-78
2021/10/16 04:49:10;;;;;;;6.13;2.60;;;8.60;99.90;;;;;;5043991;28;36922;-78
2021/10/16 04:51:36;;;;;;;8.47;2.40;;;8.70;99.90;;;;;;5045369;28;38816;-78
2021/10/16 04:54:02;;;;;;;9.00;2.67;;;8.70;99.90;;;;;;5045327;28;38632;-78
2021/10/16 04:56:28;;;;;;;10.90;2.23;;;8.70;99.90;;;;;;5042799;28;39013;-79
2021/10/16 04:58:54;;;;;;;12.93;3.00;;;8.70;99.90;;;;;;5045103;28;38299;-78
2021/10/16 05:01:20;;;;;;;8.60;2.53;;;8.80;99.90;;;;;;5045413;28;38561;-78
2021/10/16 05:03:46;;;;;;;6.90;2.53;;;8.80;99.90;;;;;;5044511;28;38532;-77
2021/10/16 05:06:12;;;;;;;11.00;2.40;;;8.90;99.90;;;;;;5041028;28;36981;-78
2021/10/16 05:08:40;;;;;;;9.43;2.43;;;8.90;99.90;;;;;;5041681;28;38598;-78
2021/10/16 05:11:06;;;;;;;12.80;2.93;;;9.00;99.90;;;;;;5045462;28;39276;-78
2021/10/16 05:13:33;;;;;;;9.17;2.70;;;9.00;99.90;;;;;;5043281;28;37599;-78
2021/10/16 05:15:59;;;;;;;8.48;2.10;;;9.10;99.90;;;;;;5041625;28;38753;-78
2021/10/16 05:18:26;;;;;;;7.50;2.47;;;9.10;99.90;;;;;;5039963;28;38174;-78
2021/10/16 05:20:53;;;;;;;7.50;2.73;;;9.10;99.90;;;;;;5042866;28;39818;-78
2021/10/16 05:23:19;;;;;;;6.13;1.97;;;9.20;99.90;;;;;;5037584;28;36550;-77
2021/10/16 05:25:46;;;;;;;11.30;2.57;;;9.20;99.90;;;;;;5045004;28;37865;-77
2021/10/16 05:28:13;;;;;;;8.90;2.60;;;9.20;99.90;;;;;;5040184;28;37741;-77
2021/10/16 05:30:39;;;;;;;11.37;2.97;;;9.30;99.90;;;;;;5041772;28;40286;-77
2021/10/16 05:33:05;;;;;;;9.63;2.47;;;9.30;99.90;;;;;;5043101;28;39632;-77
2021/10/16 05:35:31;;;;;;;8.90;2.20;;;9.30;99.90;;;;;;5042566;28;38486;-76
2021/10/16 05:37:58;;;;;;;5.95;2.38;;;9.30;99.90;;;;;;5042467;28;37866;-78
2021/10/16 05:40:24;;;;;;;9.95;3.13;;;9.40;99.90;;;;;;5041610;28;40707;-78
2021/10/16 05:42:50;;;;;;;7.47;2.30;;;9.40;99.90;;;;;;5040580;28;39400;-78
2021/10/16 05:45:16;;;;;;;8.03;2.53;;;9.40;99.90;;;;;;5039749;28;39065;-78
2021/10/16 05:47:42;;;;;;;7.07;2.30;;;9.50;99.90;;;;;;5043339;28;37936;-78
2021/10/16 05:50:10;;;;;;;10.57;2.77;;;9.50;99.90;;;;;;5041489;28;39814;-77
2021/10/16 05:52:37;;;;;;;8.80;2.75;;;9.50;99.90;;;;;;5045102;28;38363;-77
2021/10/16 05:55:04;;;;;;;7.45;2.40;;;9.50;99.90;;;;;;5042923;28;37081;-78
2021/10/16 05:57:30;;;;;;;8.20;2.50;;;9.60;99.90;;;;;;5039275;28;47029;-77
2021/10/16 05:59:56;;;;;;;5.80;2.07;;;9.60;99.90;;;;;;5039588;28;38426;-77
2021/10/16 06:02:22;;;;;;;10.73;2.47;;;9.60;99.90;;;;;;5034673;28;38387;-78
2021/10/16 06:04:48;;;;;;;7.10;2.60;;;9.70;99.90;;;;;;5039929;28;38104;-78
2021/10/16 06:07:14;;;;;;;9.23;2.95;;;9.70;99.90;;;;;;5037221;28;38270;-78
2021/10/16 06:09:40;;;;;;;9.07;2.80;;;9.70;99.90;;;;;;5043776;28;38661;-78
2021/10/16 06:12:06;;;;;;;11.33;3.03;;;9.80;99.90;;;;;;5037636;28;38399;-78
2021/10/16 06:14:32;;;;;;;7.13;2.83;;;9.80;99.90;;;;;;5045238;28;37826;-78
2021/10/16 06:16:58;;;;;;;8.43;2.73;;;9.80;99.90;;;;;;5030081;28;37240;-78
2021/10/16 06:19:25;;;;;;;11.33;2.80;;;9.80;99.90;;;;;;5043985;28;39847;-77
2021/10/16 06:21:51;;;;;;;13.05;3.08;;;9.80;99.90;;;;;;5043249;28;40284;-78
2021/10/16 06:24:17;;;;;;;9.03;3.03;;;9.90;99.90;;;;;;5047548;28;39158;-78
2021/10/16 06:26:43;;;;;;;13.23;3.20;;;9.90;99.90;;;;;;5033068;28;37139;-78
2021/10/16 06:29:09;;;;;;;8.67;2.47;;;9.90;99.90;;;;;;5035822;28;39828;-78
2021/10/16 06:31:36;;;;;;;9.45;3.05;;;10.00;99.90;;;;;;5041497;28;45967;-77
2021/10/16 06:34:02;;;;;;;10.43;3.23;;;10.00;99.90;;;;;;5046592;28;38515;-78
2021/10/16 06:36:28;;;;;;;9.70;2.77;;;10.00;99.90;;;;;;5046397;28;37812;-78
2021/10/16 06:38:54;;;;;;;11.55;3.10;;;10.00;99.90;;;;;;5043508;28;41711;-78
2021/10/16 06:41:20;;;;;;;11.82;3.17;;;10.00;99.90;;;;;;5039294;28;38135;-78
2021/10/16 06:43:46;;;;;;;13.27;2.97;;;10.10;99.90;;;;;;5045710;28;38825;-78
2021/10/16 06:46:12;;;;;;;9.33;2.57;;;10.10;99.90;;;;;;5042470;28;37205;-78
2021/10/16 06:48:38;;;;;;;13.85;3.65;;;10.10;99.90;;;;;;5020937;28;40527;-78
2021/10/16 06:51:05;;;;;;;14.18;3.22;;;10.10;99.90;;;;;;5022519;28;38831;-78
2021/10/16 06:53:31;;;;;;;18.63;3.78;;;10.10;99.90;;;;;;5036132;28;38557;-77
2021/10/16 06:55:57;;;;;;;16.10;3.70;;;10.10;99.90;;;;;;5033339;28;38133;-77
2021/10/16 06:58:23;;;;;;;15.55;3.58;;;10.10;99.90;;;;;;5031691;28;39025;-77
2021/10/16 07:00:49;;;;;;;13.75;3.47;;;10.20;99.90;;;;;;5039684;28;38692;-77
2021/10/16 07:03:15;;;;;;;15.45;3.50;;;10.20;99.90;;;;;;5040800;28;38065;-78
2021/10/16 07:05:41;;;;;;;18.00;4.22;;;10.20;99.90;;;;;;5035174;28;39519;-77
2021/10/16 07:08:08;;;;;;;16.95;3.97;;;10.30;99.90;;;;;;5031449;28;39461;-77
2021/10/16 07:10:34;;;;;;;15.43;3.75;;;10.30;99.90;;;;;;5028438;28;38617;-77
2021/10/16 07:13:02;;;;;;;11.98;3.15;;;10.30;99.90;;;;;;5034173;28;37136;-77
2021/10/16 07:15:28;;;;;;;19.08;4.25;;;10.40;99.90;;;;;;5018568;28;48946;-77
2021/10/16 07:17:54;;;;;;;20.80;4.30;;;10.40;99.90;;;;;;5022511;28;39585;-77
2021/10/16 07:20:21;;;;;;;16.48;3.65;;;10.50;99.90;;;;;;5030244;28;38488;-77
2021/10/16 07:22:47;;;;;;;15.15;3.80;;;10.40;99.90;;;;;;5043400;28;37273;-78
2021/10/16 07:25:13;;;;;;;15.05;3.67;;;10.50;99.90;;;;;;5046389;28;37472;-78
2021/10/16 07:27:39;;;;;;;18.20;4.13;;;10.50;99.90;;;;;;5033496;28;39774;-78
2021/10/16 07:30:08;;;;;;;13.35;3.28;;;10.60;99.90;;;;;;5041182;28;40401;-78
2021/10/16 07:32:35;;;;;;;10.70;3.50;;;10.60;99.90;;;;;;5042893;28;48534;-78
2021/10/16 07:35:01;;;;;;;22.13;4.95;;;10.70;99.90;;;;;;5041045;28;38708;-78
2021/10/16 07:37:27;;;;;;;13.90;3.45;;;10.70;99.90;;;;;;5043073;28;39957;-78
2021/10/16 07:39:53;;;;;;;12.45;3.30;;;10.80;99.90;;;;;;5045610;28;39473;-78
2021/10/16 07:42:19;;;;;;;21.08;4.05;;;10.80;99.90;;;;;;5043726;28;38949;-78
2021/10/16 07:44:45;;;;;;;15.93;3.17;;;10.80;99.90;;;;;;5030106;28;37710;-78
2021/10/16 07:47:11;;;;;;;18.65;3.17;;;10.90;99.90;;;;;;5025121;28;40116;-78
2021/10/16 07:49:38;;;;;;;16.73;3.00;;;10.90;99.90;;;;;;5040552;28;38994;-78
2021/10/16 07:52:04;;;;;;;12.00;3.13;;;11.00;99.90;;;;;;5041198;28;38515;-78
2021/10/16 07:54:30;;;;;;;16.75;2.85;;;11.00;99.90;;;;;;5046245;28;36105;-78
2021/10/16 07:56:57;;;;;;;17.60;3.03;;;11.00;99.90;;;;;;5045009;28;38305;-78
2021/10/16 07:59:23;;;;;;;15.77;3.28;;;11.10;99.90;;;;;;5042905;28;39704;-78
2021/10/16 08:01:49;;;;;;;20.70;3.17;;;11.20;99.90;;;;;;5040525;28;39552;-78
2021/10/16 08:04:16;;;;;;;14.98;2.60;;;11.20;99.90;;;;;;5044535;28;37912;-77
2021/10/16 08:06:42;;;;;;;21.20;3.08;;;11.20;99.90;;;;;;5042292;28;38691;-78
2021/10/16 08:09:08;;;;;;;11.20;2.83;;;11.20;99.90;;;;;;5042648;28;37204;-78
2021/10/16 08:11:36;;;;;;;15.00;2.40;;;11.30;99.90;;;;;;5042931;28;38145;-78
2021/10/16 08:14:03;;;;;;;8.65;2.10;;;11.40;99.90;;;;;;5042650;28;37720;-78
2021/10/16 08:16:29;;;;;;;13.50;2.55;;;11.50;99.90;;;;;;5027720;28;39585;-78
2021/10/16 08:18:58;;;;;;;9.80;2.55;;;11.50;99.90;;;;;;5042260;28;37392;-78
2021/10/16 08:21:24;;;;;;;23.05;5.82;;;11.70;99.90;;;;;;5043188;28;38749;-78
2021/10/16 08:23:50;;;;;;;11.85;2.63;;;11.70;99.90;;;;;;5045635;28;36930;-78
2021/10/16 08:26:16;;;;;;;9.85;1.75;;;11.80;99.90;;;;;;5045503;28;38533;-78
2021/10/16 08:28:42;;;;;;;9.75;1.95;;;11.80;99.90;;;;;;5045234;28;38787;-78
2021/10/16 08:31:08;;;;;;;9.95;2.47;;;11.80;99.90;;;;;;5042488;28;37852;-78
2021/10/16 08:33:37;;;;;;;10.40;2.92;;;11.90;99.90;;;;;;5022292;28;37185;-78
2021/10/16 08:36:06;;;;;;;8.93;2.33;;;11.70;99.90;;;;;;5017283;28;40890;-78
2021/10/16 08:38:32;;;;;;;11.68;2.85;;;11.70;99.90;;;;;;5030685;28;38917;-78
2021/10/16 08:40:59;;;;;;;11.38;2.50;;;11.70;99.90;;;;;;5029250;28;37703;-78
2021/10/16 08:43:25;;;;;;;14.18;2.85;;;11.60;99.90;;;;;;5044535;28;37791;-78
2021/10/16 08:45:52;;;;;;;15.00;3.00;;;11.60;99.90;;;;;;5048255;28;38788;-78
2021/10/16 08:48:18;;;;;;;15.93;2.70;;;11.60;99.90;;;;;;5046306;28;38665;-78
2021/10/16 08:50:48;;;;;;;7.65;2.40;;;11.60;99.90;;;;;;5038707;28;38664;-78
2021/10/16 08:53:15;;;;;;;14.18;2.70;;;11.70;99.90;;;;;;5031820;28;38479;-78
2021/10/16 08:55:43;;;;;;;10.73;2.67;;;11.70;99.90;;;;;;5039608;28;38568;-79
2021/10/16 08:58:09;;;;;;;10.13;2.28;;;11.70;99.90;;;;;;5040999;28;39251;-78
2021/10/16 09:00:52;;;;;;;10.25;2.65;;;11.80;99.90;;;;;;5030348;28;39167;-78
2021/10/16 09:03:25;;;;;;;;;;;11.80;99.90;;;;;;5047453;28;37257;-78
2021/10/16 09:06:09;;;;;;;8.38;1.95;;;11.90;99.90;;;;;;5036743;28;39882;-78
2021/10/16 09:08:42;;;;;;;11.50;2.55;;;11.90;99.90;;;;;;5039087;28;48900;-78
2021/10/16 09:11:14;;;;;;;13.60;3.17;;;12.00;99.90;;;;;;5045516;28;38275;-78
2021/10/16 09:13:54;;;;;;;14.02;3.42;;;12.10;99.90;;;;;;5033832;28;37773;-78
2021/10/16 09:16:24;;;;;;;12.35;2.58;;;12.10;99.90;;;;;;5043311;28;38415;-78
2021/10/16 09:19:02;;;;;;;8.30;2.20;;;12.10;99.90;;;;;;5033026;28;38615;-78
2021/10/16 09:21:31;;;;;;;17.25;3.10;;;12.20;99.90;;;;;;5043135;28;47356;-78
2021/10/16 09:24:06;;;;;;;8.98;3.00;;;12.10;99.90;;;;;;5042914;28;37563;-78
2021/10/16 09:26:34;;;;;;;16.40;3.58;;;12.00;99.90;;;;;;5029773;28;47397;-78
2021/10/16 09:29:03;;;;;;;9.98;2.53;;;12.00;99.90;;;;;;5034777;28;38179;-78
2021/10/16 09:31:37;;;;;;;17.42;3.40;;;12.00;99.90;;;;;;5036274;28;38373;-78
2021/10/16 09:34:04;;;;;;;14.55;2.53;;;12.10;99.90;;;;;;5037913;28;37228;-78
2021/10/16 09:36:30;;;;;;;14.13;3.15;;;12.10;99.90;;;;;;5024091;28;37825;-78
2021/10/16 09:38:58;;;;;;;12.05;2.53;;;12.20;99.90;;;;;;5030595;28;38949;-78
2021/10/16 09:41:29;;;;;;;17.27;2.90;;;12.20;99.90;;;;;;5041001;28;38272;-78
2021/10/16 09:43:57;;;;;;;17.33;2.67;;;12.20;99.90;;;;;;5039768;28;38436;-78
2021/10/16 09:46:24;;;;;;;10.23;3.17;;;12.30;99.90;;;;;;5026701;28;37853;-79
2021/10/16 09:48:51;;;;;;;13.38;3.00;;;12.20;99.90;;;;;;5022610;28;38491;-78
2021/10/16 09:51:20;;;;;;;16.80;3.83;;;12.20;99.90;;;;;;5030221;28;39055;-78
2021/10/16 09:53:49;;;;;;;10.27;2.97;;;12.20;99.90;;;;;;5039118;28;37192;-78
2021/10/16 09:56:15;;;;;;;12.45;2.60;;;12.20;99.90;;;;;;5040913;28;38087;-79
2021/10/16 09:58:42;;;;;;;13.88;3.55;;;12.30;99.90;;;;;;5040595;28;38778;-79
2021/10/16 10:01:10;;;;;;;14.75;3.53;;;12.30;99.90;;;;;;5039636;28;37888;-78
2021/10/16 10:03:40;;;;;;;16.27;3.03;;;12.40;99.90;;;;;;5039725;28;37252;-78
2021/10/16 10:06:16;;;;;;;18.80;3.15;;;12.40;99.90;;;;;;5030127;28;40686;-78
2021/10/16 10:08:43;;;;;;;15.05;3.20;;;12.50;99.90;;;;;;5032783;28;38577;-79
2021/10/16 10:11:11;;;;;;;14.07;3.08;;;12.50;99.90;;;;;;5019953;28;36920;-79
2021/10/16 10:13:38;;;;;;;11.63;2.95;;;12.60;99.90;;;;;;5030563;28;36425;-78
2021/10/16 10:16:04;;;;;;;14.35;3.20;;;12.80;99.90;;;;;;5035436;28;38912;-78
2021/10/16 10:21:19;;;;;;;18.35;2.97;;;12.90;99.90;;;;;;5045630;28;38493;-78
2021/10/16 10:23:53;;;;;;;12.85;2.67;;;13.00;99.90;;;;;;5044993;28;36712;-79
2021/10/16 10:26:29;;;;;;;10.77;3.03;;;13.10;99.90;;;;;;5042396;28;37641;-78
2021/10/16 10:29:13;;;;;;;9.48;2.78;;;13.10;99.90;;;;;;5053622;28;37527;-78
2021/10/16 10:31:45;;;;;;;10.57;2.83;;;13.20;99.90;;;;;;5022097;28;48392;-79
2021/10/16 10:34:13;;;;;;;10.68;2.85;;;13.40;99.90;;;;;;5022063;28;37933;-76
2021/10/16 10:36:58;;;;;;;12.43;2.67;;;13.40;99.90;;;;;;5013099;28;39302;-78
2021/10/16 10:39:32;;;;;;;10.77;2.45;;;13.20;99.90;;;;;;5020844;28;38396;-78
2021/10/16 10:41:59;;;;;;;12.60;2.90;;;13.20;99.90;;;;;;5025371;28;37425;-79
2021/10/16 10:44:48;;;;;;;13.45;2.40;;;13.40;99.90;;;;;;5019625;28;37072;-76
2021/10/16 10:47:22;;;;;;;8.98;2.88;;;13.30;99.90;;;;;;5035270;28;39220;-79
2021/10/16 10:49:51;;;;;;;13.55;3.00;;;13.00;99.90;;;;;;5044196;28;38904;-79
2021/10/16 10:52:17;;;;;;;12.63;3.00;;;13.00;99.90;;;;;;5043080;28;38286;-80
2021/10/16 10:54:58;;;;;;;7.75;2.53;;;13.10;99.90;;;;;;5041526;28;37315;-79
2021/10/16 10:57:43;;;;;;;10.85;2.95;;;13.40;99.90;;;;;;5021506;28;38919;-80
2021/10/16 11:00:11;;;;;;;16.20;3.75;;;13.60;99.90;;;;;;5020328;28;39068;-79
2021/10/16 11:02:38;;;;;;;17.75;3.92;;;13.80;99.90;;;;;;5027972;28;37891;-79
2021/10/16 11:05:34;;;;;;;16.40;3.60;;;13.90;99.90;;;;;;5031504;28;36851;-76
2021/10/16 11:08:10;;;;;;;20.30;4.32;;;13.90;99.90;;;;;;5010927;28;47653;-76
2021/10/16 11:10:37;;;;;;;16.52;3.65;;;13.90;99.90;;;;;;5021431;28;47150;-77
2021/10/16 11:13:18;;;;;;;17.88;3.60;;;14.00;99.90;;;;;;5035359;28;39029;-76
2021/10/16 11:15:54;;;;;;;16.17;4.28;;;14.10;99.90;;;;;;5039118;28;38011;-76
2021/10/16 11:18:21;;;;;;;18.58;5.53;;;14.30;99.90;;;;;;5040895;28;38595;-78
2021/10/16 11:20:47;;;;;;;15.85;4.55;;;14.40;99.90;;;;;;5043503;28;37532;-77
2021/10/16 11:23:21;;;;;;;13.77;4.00;;;14.50;99.90;;;;;;5040326;28;38154;-77
2021/10/16 11:26:10;;;;;;;16.98;3.75;;;14.50;99.90;;;;;;5033484;28;36655;-78
2021/10/16 11:28:39;;;;;;;14.70;4.82;;;14.60;99.90;;;;;;5038516;28;48719;-78
2021/10/16 11:31:07;;;;;;;19.30;3.97;;;14.60;99.90;;;;;;5044535;28;39432;-77
2021/10/16 11:33:39;;;;;;;13.50;4.25;;;14.80;99.90;;;;;;5037224;28;37132;-78
2021/10/16 11:36:06;;;;;;;;;;;14.80;99.90;;;;;;5033021;28;37088;-77
2021/10/16 11:38:35;;;;;;;15.98;3.40;;;14.80;99.90;;;;;;5041916;28;39079;-78
2021/10/16 11:41:02;;;;;;;16.25;3.35;;;15.00;99.90;;;;;;5038567;28;37102;-78
2021/10/16 11:43:31;;;;;;;12.70;3.03;;;15.20;99.90;;;;;;5033899;28;48170;-80
2021/10/16 11:45:57;;;;;;;11.40;2.88;;;14.90;99.90;;;;;;5042533;28;38253;-78
2021/10/16 11:48:25;;;;;;;15.63;2.80;;;14.70;99.90;;;;;;5043341;28;37965;-78
2021/10/16 11:50:57;;;;;;;11.35;2.35;;;15.00;99.90;;;;;;5041470;28;38585;-78
2021/10/16 11:53:25;;;;;;;11.52;2.30;;;15.00;99.90;;;;;;5035410;28;37069;-78
2021/10/16 11:56:00;;;;;;;9.60;2.25;;;15.00;99.90;;;;;;5036697;28;37874;-79
2021/10/16 11:58:28;;;;;;;10.85;2.22;;;15.10;99.90;;;;;;5030262;28;39865;-78
2021/10/16 12:00:55;;;;;;;13.25;2.40;;;15.40;99.90;;;;;;5021684;28;39650;-78
2021/10/16 12:03:28;;;;;;;8.13;2.40;;;15.30;99.90;;;;;;5021846;28;39163;-78
2021/10/16 12:05:55;;;;;;;6.07;1.42;;;15.10;99.90;;;;;;5027770;28;36731;-78
2021/10/16 12:08:28;;;;;;;10.43;2.08;;;15.20;99.90;;;;;;5046827;28;39350;-78
2021/10/16 12:10:55;;;;;;;;;;;15.10;99.90;;;;;;5039075;28;38628;-79
2021/10/16 12:13:32;;;;;;;7.72;1.60;;;15.10;99.90;;;;;;5045750;28;38722;-79
2021/10/16 12:15:59;;;;;;;9.48;1.95;;;15.10;99.90;;;;;;5036122;28;37621;-78
2021/10/16 12:18:30;;;;;;;9.43;2.42;;;15.20;99.90;;;;;;5042205;28;39875;-79
2021/10/16 12:20:58;;;;;;;6.00;1.60;;;15.30;99.90;;;;;;5042294;28;39381;-78
2021/10/16 12:23:47;;;;;;;8.93;1.92;;;15.30;99.90;;;;;;5043936;28;39880;-79
2021/10/16 12:26:24;;;;;;;7.65;1.83;;;15.30;99.90;;;;;;5038583;28;37108;-78
2021/10/16 12:28:51;;;;;;;8.07;1.67;;;15.30;99.90;;;;;;5056559;28;39234;-78
2021/10/16 12:31:19;;;;;;;7.72;1.98;;;15.40;99.90;;;;;;5031585;28;38522;-79
2021/10/16 12:34:14;;;;;;;7.18;1.80;;;15.30;99.90;;;;;;5046322;28;40005;-78
2021/10/16 12:36:48;;;;;;;10.73;2.10;;;15.40;99.90;;;;;;5057605;28;48290;-78
2021/10/16 12:39:33;;;;;;;8.40;2.05;;;15.30;99.90;;;;;;5046631;28;38873;-78
2021/10/16 12:42:25;;;;;;;10.45;2.40;;;15.20;99.90;;;;;;5059776;28;38589;-78
2021/10/16 12:44:53;;;;;;;7.70;1.80;;;15.20;99.90;;;;;;5039779;28;47324;-77
2021/10/16 12:47:29;;;;;;;9.70;2.00;;;15.00;99.90;;;;;;5038009;28;37228;-78
2021/10/16 12:50:02;;;;;;;11.52;2.30;;;14.90;99.90;;;;;;5046058;28;38524;-78